createdAt,value
2017-11-01T00:01:34.832Z,8.10
2017-11-01T00:04:02.232Z,8.43
2017-11-01T00:06:29.566Z,7.80
2017-11-01T00:08:56.894Z,8.07
2017-11-01T00:11:24.241Z,7.70
2017-11-01T00:13:51.614Z,7.27
2017-11-01T00:16:24.783Z,7.80
2017-11-01T00:18:52.090Z,7.90
2017-11-01T00:21:19.438Z,8.10
2017-11-01T00:23:46.721Z,7.83
2017-11-01T00:26:14.111Z,8.23
2017-11-01T00:28:41.416Z,7.47
2017-11-01T00:31:08.759Z,7.80
2017-11-01T00:33:36.043Z,7.87
2017-11-01T00:36:03.375Z,8.50
2017-11-01T00:38:30.743Z,7.57
2017-11-01T00:40:58.087Z,7.23
2017-11-01T00:43:25.399Z,8.40
2017-11-01T00:45:52.706Z,7.50
2017-11-01T00:48:20.035Z,8.23
2017-11-01T00:50:47.366Z,7.50
2017-11-01T00:53:14.735Z,7.13
2017-11-01T00:55:42.028Z,6.87
2017-11-01T00:58:09.360Z,8.30
2017-11-01T01:00:36.729Z,9.20
2017-11-01T01:03:04.040Z,7.23
2017-11-01T01:05:31.347Z,8.40
2017-11-01T01:07:58.649Z,7.80
2017-11-01T01:10:25.946Z,7.10
2017-11-01T01:12:53.257Z,7.90
2017-11-01T01:15:20.672Z,7.37
2017-11-01T01:17:47.943Z,7.97
2017-11-01T01:20:15.286Z,7.50
2017-11-01T01:22:42.552Z,8.13
2017-11-01T01:25:09.876Z,8.00
2017-11-01T01:27:37.178Z,7.43
2017-11-01T01:30:04.541Z,7.80
2017-11-01T01:32:31.835Z,6.87
2017-11-01T01:34:59.137Z,6.90
2017-11-01T01:37:26.449Z,7.47
2017-11-01T01:39:53.760Z,7.63
2017-11-01T01:42:21.064Z,7.17
2017-11-01T01:44:48.453Z,7.47
2017-11-01T01:47:15.796Z,6.67
2017-11-01T01:49:43.078Z,7.83
2017-11-01T01:52:10.433Z,7.10
2017-11-01T01:54:37.717Z,7.40
2017-11-01T01:57:05.078Z,7.30
2017-11-01T01:59:32.386Z,7.30
2017-11-01T02:01:59.682Z,7.57
2017-11-01T02:04:26.971Z,7.60
2017-11-01T02:06:54.300Z,6.67
2017-11-01T02:09:21.620Z,8.27
2017-11-01T02:11:48.919Z,7.13
2017-11-01T02:14:16.263Z,6.80
2017-11-01T02:16:43.568Z,6.57
2017-11-01T02:19:10.912Z,6.13
2017-11-01T02:21:38.221Z,6.33
2017-11-01T02:24:05.583Z,6.57
2017-11-01T02:26:32.875Z,6.20
2017-11-01T02:29:00.190Z,6.80
2017-11-01T02:31:27.511Z,6.90
2017-11-01T02:33:54.895Z,6.13
2017-11-01T02:36:22.175Z,6.23
2017-11-01T02:38:49.561Z,6.90
2017-11-01T02:41:16.869Z,6.97
2017-11-01T02:43:44.240Z,6.57
2017-11-01T02:46:11.569Z,7.77
2017-11-01T02:48:38.844Z,6.63
2017-11-01T02:51:06.190Z,6.13
2017-11-01T02:53:33.562Z,5.43
2017-11-01T02:56:00.920Z,5.73
2017-11-01T02:58:28.256Z,6.30
2017-11-01T03:00:55.645Z,6.97
2017-11-01T03:03:23.017Z,6.60
2017-11-01T03:05:50.309Z,6.73
2017-11-01T03:08:17.590Z,7.30
2017-11-01T03:10:44.955Z,6.50
2017-11-01T03:13:12.266Z,6.80
2017-11-01T03:15:39.631Z,5.70
2017-11-01T03:18:07.027Z,7.17
2017-11-01T03:20:34.314Z,7.73
2017-11-01T03:23:01.614Z,7.60
2017-11-01T03:25:28.942Z,7.47
2017-11-01T03:27:56.300Z,7.60
2017-11-01T03:30:23.589Z,6.57
2017-11-01T03:32:50.906Z,7.77
2017-11-01T03:35:18.197Z,7.93
2017-11-01T03:37:45.583Z,7.87
2017-11-01T03:40:12.907Z,8.67
2017-11-01T03:42:40.218Z,7.23
2017-11-01T03:45:07.508Z,8.10
2017-11-01T03:47:34.845Z,8.30
2017-11-01T03:50:02.194Z,7.80
2017-11-01T03:52:29.525Z,8.20
2017-11-01T03:54:56.813Z,7.77
2017-11-01T03:57:24.161Z,7.00
2017-11-01T03:59:51.436Z,7.27
2017-11-01T04:02:18.759Z,7.27
2017-11-01T04:04:46.107Z,7.20
2017-11-01T04:07:13.440Z,7.77
2017-11-01T04:09:40.745Z,7.27
2017-11-01T04:12:08.054Z,8.10
2017-11-01T04:14:35.383Z,8.10
2017-11-01T04:17:02.754Z,7.43
2017-11-01T04:19:30.078Z,7.67
2017-11-01T04:21:57.422Z,7.17
2017-11-01T04:24:24.795Z,6.47
2017-11-01T04:26:52.080Z,7.50
2017-11-01T04:29:19.385Z,6.60
2017-11-01T04:31:46.676Z,6.70
2017-11-01T04:34:13.993Z,7.03
2017-11-01T04:36:41.255Z,6.00
2017-11-01T04:39:08.565Z,7.07
2017-11-01T04:41:35.899Z,6.90
2017-11-01T04:44:03.277Z,6.67
2017-11-01T04:46:30.578Z,6.63
2017-11-01T04:48:57.972Z,5.80
2017-11-01T04:51:25.319Z,6.13
2017-11-01T04:53:54.470Z,5.83
2017-11-01T04:56:23.710Z,7.03
2017-11-01T04:58:51.051Z,5.97
2017-11-01T05:01:19.048Z,6.10
2017-11-01T05:03:47.036Z,5.70
2017-11-01T05:06:19.214Z,5.20
2017-11-01T05:08:49.449Z,5.43
2017-11-01T05:11:18.597Z,4.80
2017-11-01T05:13:55.844Z,5.73
2017-11-01T05:16:23.183Z,6.70
2017-11-01T05:18:50.501Z,6.03
2017-11-01T05:21:17.812Z,4.83
2017-11-01T05:23:47.589Z,5.37
2017-11-01T05:26:14.924Z,5.43
2017-11-01T05:28:42.247Z,6.40
2017-11-01T05:31:09.563Z,5.70
2017-11-01T05:33:36.885Z,5.90
2017-11-01T05:36:04.203Z,5.40
2017-11-01T05:38:31.520Z,4.93
2017-11-01T05:40:58.880Z,4.43
2017-11-01T05:43:26.164Z,5.60
2017-11-01T05:45:53.471Z,5.13
2017-11-01T05:48:20.788Z,5.87
2017-11-01T05:50:48.294Z,4.40
2017-11-01T05:53:15.607Z,4.50
2017-11-01T05:55:42.948Z,4.40
2017-11-01T05:58:10.286Z,4.87
2017-11-01T06:00:37.681Z,4.03
2017-11-01T06:03:05.034Z,3.90
2017-11-01T06:05:32.353Z,4.80
2017-11-01T06:07:59.731Z,5.67
2017-11-01T06:10:27.031Z,5.60
2017-11-01T06:12:54.353Z,4.67
2017-11-01T06:15:21.648Z,4.10
2017-11-01T06:17:48.960Z,4.10
2017-11-01T06:20:16.328Z,5.00
2017-11-01T06:22:43.683Z,4.57
2017-11-01T06:25:10.982Z,5.43
2017-11-01T06:27:38.373Z,5.10
2017-11-01T06:30:05.729Z,5.10
2017-11-01T06:32:33.045Z,4.77
2017-11-01T06:35:00.413Z,5.50
2017-11-01T06:37:27.795Z,5.50
2017-11-01T06:39:55.140Z,5.50
2017-11-01T06:42:22.467Z,5.73
2017-11-01T06:44:49.801Z,7.40
2017-11-01T06:47:17.202Z,5.40
2017-11-01T06:49:44.500Z,5.40
2017-11-01T06:52:11.830Z,5.83
2017-11-01T06:54:39.150Z,5.33
2017-11-01T06:57:06.473Z,5.27
2017-11-01T06:59:33.792Z,5.73
2017-11-01T07:02:01.088Z,6.10
2017-11-01T07:04:28.416Z,5.60
2017-11-01T07:06:55.775Z,4.90
2017-11-01T07:09:23.063Z,5.60
2017-11-01T07:11:50.415Z,6.70
2017-11-01T07:14:17.813Z,5.73
2017-11-01T07:16:45.110Z,5.73
2017-11-01T07:19:12.411Z,4.83
2017-11-01T07:21:39.741Z,5.17
2017-11-01T07:24:07.063Z,5.47
2017-11-01T07:26:34.681Z,6.17
2017-11-01T07:29:01.956Z,5.93
2017-11-01T07:31:30.099Z,5.50
2017-11-01T07:33:57.455Z,5.37
2017-11-01T07:36:24.775Z,5.17
2017-11-01T07:38:52.098Z,5.53
2017-11-01T07:41:19.420Z,5.30
2017-11-01T07:43:46.740Z,4.77
2017-11-01T07:46:14.112Z,5.00
2017-11-01T07:48:41.419Z,5.27
2017-11-01T07:51:08.804Z,5.43
2017-11-01T07:53:36.112Z,5.20
2017-11-01T07:56:03.408Z,5.40
2017-11-01T07:58:30.742Z,5.07
2017-11-01T08:00:58.007Z,5.90
2017-11-01T08:03:25.303Z,5.33
2017-11-01T08:05:52.596Z,5.83
2017-11-01T08:08:19.854Z,4.43
2017-11-01T08:10:47.160Z,4.90
2017-11-01T08:13:14.423Z,4.83
2017-11-01T08:15:41.686Z,4.57
2017-11-01T08:18:08.983Z,4.73
2017-11-01T08:20:36.254Z,4.30
2017-11-01T08:23:03.511Z,4.43
2017-11-01T08:25:30.796Z,3.97
2017-11-01T08:27:58.059Z,4.70
2017-11-01T08:30:25.356Z,4.07
2017-11-01T08:32:52.623Z,4.20
2017-11-01T08:35:19.875Z,3.50
2017-11-01T08:37:47.172Z,3.70
2017-11-01T08:40:14.431Z,3.77
2017-11-01T08:42:41.718Z,4.00
2017-11-01T08:45:08.980Z,3.93
2017-11-01T08:47:36.276Z,3.40
2017-11-01T08:50:03.540Z,3.80
2017-11-01T08:52:30.799Z,3.60
2017-11-01T08:54:58.091Z,3.50
2017-11-01T08:57:25.393Z,3.50
2017-11-01T08:59:52.676Z,4.20
2017-11-01T09:02:19.937Z,3.33
2017-11-01T09:04:47.230Z,3.47
2017-11-01T09:07:14.583Z,3.50
2017-11-01T09:09:41.876Z,3.87
2017-11-01T09:12:09.147Z,3.30
2017-11-01T09:14:36.447Z,3.83
2017-11-01T09:17:03.750Z,3.27
2017-11-01T09:19:31.042Z,3.60
2017-11-01T09:21:58.318Z,3.23
2017-11-01T09:24:25.611Z,3.63
2017-11-01T09:26:52.867Z,3.50
2017-11-01T09:29:20.160Z,3.63
2017-11-01T09:31:47.455Z,3.00
2017-11-01T09:34:14.723Z,3.47
2017-11-01T09:36:41.987Z,3.70
2017-11-01T09:39:09.283Z,3.27
2017-11-01T09:41:36.847Z,3.20
2017-11-01T09:44:04.170Z,2.90
2017-11-01T09:46:31.654Z,3.33
2017-11-01T09:48:58.920Z,3.00
2017-11-01T09:51:26.209Z,4.17
2017-11-01T09:53:53.467Z,3.10
2017-11-01T09:56:20.754Z,3.20
2017-11-01T09:58:48.016Z,2.83
2017-11-01T10:01:15.318Z,2.70
2017-11-01T10:03:42.585Z,2.97
2017-11-01T10:06:09.870Z,2.47
2017-11-01T10:08:37.139Z,2.80
2017-11-01T10:11:04.400Z,3.10
2017-11-01T10:13:31.702Z,3.30
2017-11-01T10:15:58.963Z,3.07
2017-11-01T10:18:26.228Z,3.70
2017-11-01T10:20:53.523Z,4.10
2017-11-01T10:23:20.788Z,3.40
2017-11-01T10:25:48.090Z,3.20
2017-11-01T10:28:15.354Z,3.10
2017-11-01T10:30:42.619Z,3.57
2017-11-01T10:33:09.923Z,3.00
2017-11-01T10:35:37.183Z,4.20
2017-11-01T10:38:04.447Z,3.23
2017-11-01T10:40:31.742Z,2.77
2017-11-01T10:42:59.007Z,2.97
2017-11-01T10:45:26.274Z,3.50
2017-11-01T10:47:53.559Z,2.90
2017-11-01T10:50:20.856Z,3.30
2017-11-01T10:52:48.118Z,2.70
2017-11-01T10:55:15.374Z,3.00
2017-11-01T10:57:42.680Z,3.17
2017-11-01T11:00:09.943Z,3.13
2017-11-01T11:02:37.201Z,2.87
2017-11-01T11:05:04.491Z,2.60
2017-11-01T11:07:31.768Z,2.83
2017-11-01T11:09:59.042Z,2.63
2017-11-01T11:12:26.298Z,2.67
2017-11-01T11:14:53.595Z,2.30
2017-11-01T11:17:20.892Z,2.33
2017-11-01T11:19:48.155Z,2.53
2017-11-01T11:22:15.411Z,2.33
2017-11-01T11:24:43.012Z,2.20
2017-11-01T11:27:10.375Z,3.20
2017-11-01T11:29:37.648Z,2.40
2017-11-01T11:32:04.930Z,2.50
2017-11-01T11:34:32.191Z,2.40
2017-11-01T11:36:59.490Z,2.10
2017-11-01T11:39:26.774Z,2.57
2017-11-01T11:41:54.039Z,2.60
2017-11-01T11:44:21.308Z,2.53
2017-11-01T11:46:48.599Z,2.50
2017-11-01T11:49:15.865Z,2.00
2017-11-01T11:51:43.127Z,3.13
2017-11-01T11:54:10.432Z,2.73
2017-11-01T11:56:37.712Z,2.30
2017-11-01T11:59:04.976Z,2.20
2017-11-01T12:01:32.262Z,2.10
2017-11-01T12:03:59.546Z,2.00
2017-11-01T12:06:26.839Z,2.33
2017-11-01T12:08:54.105Z,2.23
2017-11-01T12:11:21.370Z,2.23
2017-11-01T12:13:48.654Z,2.47
2017-11-01T12:16:15.918Z,2.20
2017-11-01T12:18:43.212Z,2.50
2017-11-01T12:21:10.468Z,2.30
2017-11-01T12:23:37.757Z,2.30
2017-11-01T12:26:05.027Z,2.63
2017-11-01T12:28:32.315Z,2.07
2017-11-01T12:30:59.566Z,2.23
2017-11-01T12:33:26.871Z,2.40
2017-11-01T12:35:54.131Z,2.57
2017-11-01T12:38:21.386Z,2.50
2017-11-01T12:40:48.675Z,2.57
2017-11-01T12:43:15.971Z,2.90
2017-11-01T12:45:43.233Z,2.47
2017-11-01T12:48:10.519Z,2.90
2017-11-01T12:50:37.842Z,2.63
2017-11-01T12:53:05.104Z,2.57
2017-11-01T12:55:32.363Z,2.20
2017-11-01T12:57:59.656Z,2.27
2017-11-01T13:00:26.917Z,2.27
2017-11-01T13:02:54.215Z,2.67
2017-11-01T13:05:21.508Z,2.40
2017-11-01T13:07:48.780Z,2.50
2017-11-01T13:10:16.080Z,2.40
2017-11-01T13:12:43.375Z,2.10
2017-11-01T13:15:10.647Z,2.60
2017-11-01T13:17:38.651Z,1.97
2017-11-01T13:20:05.927Z,2.30
2017-11-01T13:22:33.235Z,2.30
2017-11-01T13:25:00.497Z,1.73
2017-11-01T13:27:27.791Z,2.30
2017-11-01T13:29:55.116Z,2.20
2017-11-01T13:34:56.058Z,2.30
2017-11-01T13:37:23.367Z,2.13
2017-11-01T13:39:50.641Z,2.20
2017-11-01T13:42:17.901Z,1.50
2017-11-01T13:44:45.191Z,2.00
2017-11-01T13:47:12.454Z,1.80
2017-11-01T13:49:39.762Z,2.37
2017-11-01T13:52:07.035Z,2.20
2017-11-01T13:54:34.326Z,2.23
2017-11-01T13:57:01.635Z,2.10
2017-11-01T13:59:28.887Z,1.90
2017-11-01T14:01:56.183Z,2.60
2017-11-01T14:04:23.470Z,2.00
2017-11-01T14:06:50.751Z,2.20
2017-11-01T14:09:18.066Z,2.30
2017-11-01T14:11:45.373Z,1.80
2017-11-01T14:14:12.627Z,2.03
2017-11-01T14:16:39.935Z,1.73
2017-11-01T14:19:07.222Z,2.43
2017-11-01T14:21:34.498Z,3.03
2017-11-01T14:24:01.787Z,2.80
2017-11-01T14:26:29.497Z,3.07
2017-11-01T14:28:56.787Z,3.00
2017-11-01T14:31:24.078Z,3.20
2017-11-01T14:33:51.400Z,3.80
2017-11-01T14:36:18.683Z,3.30
2017-11-01T14:38:45.987Z,3.40
2017-11-01T14:41:13.301Z,3.10
2017-11-01T14:43:40.583Z,3.43
2017-11-01T14:46:07.843Z,2.97
2017-11-01T14:48:35.117Z,3.40
2017-11-01T14:51:02.419Z,3.00
2017-11-01T14:53:29.686Z,3.20
2017-11-01T14:55:56.986Z,3.50
2017-11-01T14:58:24.272Z,4.20
2017-11-01T15:00:51.559Z,3.93
2017-11-01T15:03:18.845Z,2.93
2017-11-01T15:05:46.127Z,3.20
2017-11-01T15:08:13.389Z,3.50
2017-11-01T15:10:40.688Z,3.27
2017-11-01T15:13:07.954Z,3.13
2017-11-01T15:15:35.264Z,3.20
2017-11-01T15:18:02.529Z,3.70
2017-11-01T15:20:29.832Z,3.87
2017-11-01T15:22:57.104Z,4.37
2017-11-01T15:25:24.400Z,3.97
2017-11-01T15:27:51.670Z,3.47
2017-11-01T15:30:18.959Z,4.53
2017-11-01T15:32:46.234Z,3.00
2017-11-01T15:35:13.525Z,3.33
2017-11-01T15:37:40.808Z,3.70
2017-11-01T15:40:08.094Z,3.33
2017-11-01T15:42:35.384Z,4.07
2017-11-01T15:45:02.657Z,4.07
2017-11-01T15:47:29.934Z,3.30
2017-11-01T15:49:57.206Z,3.60
2017-11-01T15:52:24.497Z,3.73
2017-11-01T15:54:51.764Z,3.80
2017-11-01T15:57:19.043Z,3.63
2017-11-01T15:59:46.319Z,3.63
2017-11-01T16:02:13.618Z,3.60
2017-11-01T16:04:40.890Z,3.53
2017-11-01T16:07:08.174Z,4.10
2017-11-01T16:09:35.460Z,4.80
2017-11-01T16:12:02.749Z,3.80
2017-11-01T16:14:30.022Z,3.70
2017-11-01T16:16:57.299Z,3.60
2017-11-01T16:19:24.575Z,4.30
2017-11-01T16:21:51.874Z,3.77
2017-11-01T16:24:19.151Z,3.43
2017-11-01T16:26:46.448Z,3.67
2017-11-01T16:29:13.733Z,4.10
2017-11-01T16:31:41.016Z,3.83
2017-11-01T16:34:08.304Z,3.90
2017-11-01T16:36:35.597Z,4.03
2017-11-01T16:39:02.881Z,4.27
2017-11-01T16:41:30.159Z,3.70
2017-11-01T16:43:57.474Z,4.03
2017-11-01T16:46:24.750Z,4.23
2017-11-01T16:48:52.028Z,3.90
2017-11-01T16:51:19.310Z,3.33
2017-11-01T16:53:46.602Z,4.40
2017-11-01T16:56:13.861Z,4.70
2017-11-01T16:58:41.166Z,4.17
2017-11-01T17:01:08.452Z,3.97
2017-11-01T17:03:35.758Z,4.60
2017-11-01T17:06:03.022Z,4.20
2017-11-01T17:08:30.339Z,3.90
2017-11-01T17:10:57.623Z,4.60
2017-11-01T17:13:24.912Z,8.60
2017-11-01T17:15:52.180Z,5.00
2017-11-01T17:18:19.476Z,4.63
2017-11-01T17:20:46.757Z,7.10
2017-11-01T17:23:14.086Z,5.87
2017-11-01T17:25:41.351Z,5.97
2017-11-01T17:28:08.663Z,5.57
2017-11-01T17:30:35.938Z,6.83
2017-11-01T17:33:03.240Z,5.30
2017-11-01T17:35:30.499Z,6.77
2017-11-01T17:37:57.790Z,5.30
2017-11-01T17:40:25.085Z,7.60
2017-11-01T17:42:52.394Z,6.23
2017-11-01T17:45:19.712Z,6.07
2017-11-01T17:47:47.004Z,6.00
2017-11-01T17:50:14.278Z,5.87
2017-11-01T17:52:41.566Z,6.53
2017-11-01T17:55:08.843Z,5.23
2017-11-01T17:57:36.149Z,5.10
2017-11-01T18:00:03.472Z,5.40
2017-11-01T18:02:30.769Z,5.97
2017-11-01T18:04:58.052Z,6.13
2017-11-01T18:07:25.342Z,6.07
2017-11-01T18:09:52.611Z,5.83
2017-11-01T18:12:19.927Z,5.60
2017-11-01T18:14:47.236Z,5.50
2017-11-01T18:17:14.554Z,5.20
2017-11-01T18:19:41.834Z,5.40
2017-11-01T18:22:09.130Z,4.90
2017-11-01T18:24:36.399Z,4.77
2017-11-01T18:27:03.691Z,4.17
2017-11-01T18:29:30.987Z,4.50
2017-11-01T18:31:58.296Z,4.93
2017-11-01T18:34:25.576Z,5.13
2017-11-01T18:36:52.850Z,4.90
2017-11-01T18:39:20.148Z,4.50
2017-11-01T18:41:47.415Z,4.70
2017-11-01T18:44:14.728Z,6.03
2017-11-01T18:46:42.030Z,4.63
2017-11-01T18:49:09.332Z,4.80
2017-11-01T18:51:36.627Z,5.27
2017-11-01T18:54:03.976Z,4.90
2017-11-01T18:56:31.274Z,5.43
2017-11-01T18:58:58.565Z,5.00
2017-11-01T19:01:25.830Z,4.47
2017-11-01T19:03:53.129Z,5.03
2017-11-01T19:06:20.424Z,5.53
2017-11-01T19:08:47.696Z,5.67
2017-11-01T19:11:14.974Z,5.43
2017-11-01T19:13:42.267Z,5.37
2017-11-01T19:16:09.560Z,6.33
2017-11-01T19:18:36.877Z,5.40
2017-11-01T19:21:04.185Z,6.40
2017-11-01T19:23:31.476Z,5.93
2017-11-01T19:25:58.794Z,6.20
2017-11-01T19:28:26.097Z,6.13
2017-11-01T19:30:53.371Z,6.67
2017-11-01T19:33:20.681Z,5.37
2017-11-01T19:35:47.971Z,6.30
2017-11-01T19:38:15.289Z,8.50
2017-11-01T19:40:42.587Z,11.00
2017-11-01T19:43:09.897Z,13.60
2017-11-01T19:45:37.205Z,14.67
2017-11-01T19:48:04.497Z,15.53
2017-11-01T19:50:31.804Z,15.60
2017-11-01T19:53:00.795Z,11.40
2017-11-01T19:55:29.617Z,12.67
2017-11-01T19:58:02.623Z,15.83
2017-11-01T20:00:30.491Z,16.50
2017-11-01T20:02:57.796Z,18.20
2017-11-01T20:05:25.085Z,17.20
2017-11-01T20:07:52.462Z,9.90
2017-11-01T20:10:19.721Z,7.43
2017-11-01T20:12:47.019Z,6.33
2017-11-01T20:15:14.288Z,6.47
2017-11-01T20:17:41.583Z,5.30
2017-11-01T20:20:08.855Z,5.73
2017-11-01T20:22:36.169Z,5.93
2017-11-01T20:25:03.449Z,5.80
2017-11-01T20:27:30.772Z,6.50
2017-11-01T20:29:58.062Z,6.07
2017-11-01T20:32:25.349Z,5.50
2017-11-01T20:34:52.631Z,5.57
2017-11-01T20:37:19.905Z,6.40
2017-11-01T20:39:47.216Z,5.33
2017-11-01T20:42:14.489Z,5.90
2017-11-01T20:44:41.784Z,6.10
2017-11-01T20:47:09.075Z,6.63
2017-11-01T20:49:36.371Z,5.53
2017-11-01T20:52:03.650Z,6.00
2017-11-01T20:54:30.947Z,5.90
2017-11-01T20:56:58.223Z,5.90
2017-11-01T20:59:25.535Z,5.43
2017-11-01T21:01:52.885Z,5.70
2017-11-01T21:04:20.165Z,6.17
2017-11-01T21:06:47.463Z,5.87
2017-11-01T21:09:14.756Z,6.30
2017-11-01T21:11:42.029Z,5.40
2017-11-01T21:14:09.343Z,5.57
2017-11-01T21:16:36.627Z,4.73
2017-11-01T21:19:03.973Z,5.80
2017-11-01T21:21:31.284Z,5.07
2017-11-01T21:23:58.701Z,5.50
2017-11-01T21:26:25.999Z,5.60
2017-11-01T21:28:53.552Z,5.13
2017-11-01T21:31:20.828Z,4.90
2017-11-01T21:33:48.117Z,4.77
2017-11-01T21:36:15.395Z,5.37
2017-11-01T21:38:42.684Z,5.30
2017-11-01T21:41:09.981Z,5.17
2017-11-01T21:43:37.248Z,5.50
2017-11-01T21:46:04.546Z,6.30
2017-11-01T21:48:31.839Z,5.77
2017-11-01T21:50:59.131Z,6.00
2017-11-01T21:53:26.411Z,5.03
2017-11-01T21:55:53.693Z,5.57
2017-11-01T21:58:21.017Z,5.20
2017-11-01T22:00:48.333Z,5.80
2017-11-01T22:03:15.647Z,5.90
2017-11-01T22:05:42.930Z,5.40
2017-11-01T22:08:10.230Z,4.87
2017-11-01T22:10:37.508Z,5.07
2017-11-01T22:13:04.803Z,5.00
2017-11-01T22:15:32.081Z,5.07
2017-11-01T22:17:59.395Z,4.43
2017-11-01T22:20:26.659Z,4.90
2017-11-01T22:22:53.947Z,5.43
2017-11-01T22:25:21.251Z,5.30
2017-11-01T22:27:48.522Z,4.93
2017-11-01T22:30:16.082Z,5.17
2017-11-01T22:32:44.045Z,5.47
2017-11-01T22:35:11.323Z,4.80
2017-11-01T22:37:38.612Z,5.63
2017-11-01T22:40:05.922Z,4.83
2017-11-01T22:42:33.199Z,5.10
2017-11-01T22:45:00.495Z,5.00
2017-11-01T22:47:27.788Z,5.00
2017-11-01T22:49:55.103Z,5.47
2017-11-01T22:52:22.372Z,5.43
2017-11-01T22:54:49.682Z,5.50
2017-11-01T22:57:16.970Z,4.77
2017-11-01T22:59:44.266Z,4.87
2017-11-01T23:02:11.528Z,4.50
2017-11-01T23:04:38.812Z,4.60
2017-11-01T23:07:06.080Z,5.10
2017-11-01T23:09:33.392Z,4.83
2017-11-01T23:12:00.665Z,4.80
2017-11-01T23:14:27.969Z,5.07
2017-11-01T23:16:55.271Z,4.27
2017-11-01T23:19:22.540Z,4.00
2017-11-01T23:21:49.819Z,5.30
2017-11-01T23:24:17.139Z,4.53
2017-11-01T23:26:44.411Z,4.43
2017-11-01T23:29:11.717Z,5.07
2017-11-01T23:31:38.986Z,4.80
2017-11-01T23:34:06.297Z,4.50
2017-11-01T23:36:33.558Z,4.63
2017-11-01T23:39:00.887Z,4.57
2017-11-01T23:41:28.150Z,4.50
2017-11-01T23:43:55.480Z,4.57
2017-11-01T23:46:22.754Z,4.00
2017-11-01T23:48:50.046Z,4.47
2017-11-01T23:51:17.328Z,5.20
2017-11-01T23:53:44.637Z,4.60
2017-11-01T23:56:11.922Z,4.30
2017-11-01T23:58:39.241Z,4.70
